sensor_id;sensor_type;location;lat;lon;timestamp;P1;durP1;ratioP1;P2;durP2;ratioP2
30020;SDS011;16861;52.294;7.760;2023-05-16T00:00:58;1.70;;;0.88;;
30020;SDS011;16861;52.294;7.760;2023-05-16T00:03:26;2.58;;;0.80;;
30020;SDS011;16861;52.294;7.760;2023-05-16T00:05:53;1.77;;;1.05;;
30020;SDS011;16861;52.294;7.760;2023-05-16T00:08:19;1.30;;;1.20;;
30020;SDS011;16861;52.294;7.760;2023-05-16T00:10:46;1.95;;;0.90;;
30020;SDS011;16861;52.294;7.760;2023-05-16T00:13:12;1.55;;;1.08;;
30020;SDS011;16861;52.294;7.760;2023-05-16T00:15:39;1.30;;;1.20;;
30020;SDS011;16861;52.294;7.760;2023-05-16T00:18:05;1.00;;;0.90;;
30020;SDS011;16861;52.294;7.760;2023-05-16T00:20:32;1.63;;;1.25;;
30020;SDS011;16861;52.294;7.760;2023-05-16T00:22:59;3.33;;;1.33;;
30020;SDS011;16861;52.294;7.760;2023-05-16T00:25:26;2.78;;;1.27;;
30020;SDS011;16861;52.294;7.760;2023-05-16T00:27:54;3.47;;;1.27;;
30020;SDS011;16861;52.294;7.760;2023-05-16T00:30:20;5.05;;;1.45;;
30020;SDS011;16861;52.294;7.760;2023-05-16T00:32:48;3.47;;;1.50;;
30020;SDS011;16861;52.294;7.760;2023-05-16T00:35:14;4.40;;;1.08;;
30020;SDS011;16861;52.294;7.760;2023-05-16T00:37:41;3.25;;;1.48;;
30020;SDS011;16861;52.294;7.760;2023-05-16T00:43:31;7.63;;;1.63;;
30020;SDS011;16861;52.294;7.760;2023-05-16T00:45:58;6.53;;;2.05;;
30020;SDS011;16861;52.294;7.760;2023-05-16T00:48:25;5.53;;;1.48;;
30020;SDS011;16861;52.294;7.760;2023-05-16T00:50:52;9.43;;;1.70;;
30020;SDS011;16861;52.294;7.760;2023-05-16T00:53:19;6.65;;;1.63;;
30020;SDS011;16861;52.294;7.760;2023-05-16T00:55:46;4.95;;;1.67;;
30020;SDS011;16861;52.294;7.760;2023-05-16T00:58:13;8.30;;;2.03;;
30020;SDS011;16861;52.294;7.760;2023-05-16T01:00:41;7.53;;;1.52;;
30020;SDS011;16861;52.294;7.760;2023-05-16T01:03:08;6.72;;;1.80;;
30020;SDS011;16861;52.294;7.760;2023-05-16T01:05:34;4.82;;;1.75;;
30020;SDS011;16861;52.294;7.760;2023-05-16T01:08:01;9.80;;;1.70;;
30020;SDS011;16861;52.294;7.760;2023-05-16T01:10:32;9.90;;;2.00;;
30020;SDS011;16861;52.294;7.760;2023-05-16T01:13:08;7.82;;;2.13;;
30020;SDS011;16861;52.294;7.760;2023-05-16T01:18:16;7.72;;;1.60;;
30020;SDS011;16861;52.294;7.760;2023-05-16T01:20:55;7.82;;;1.75;;
30020;SDS011;16861;52.294;7.760;2023-05-16T01:26:16;6.47;;;1.80;;
30020;SDS011;16861;52.294;7.760;2023-05-16T01:28:44;5.68;;;1.90;;
30020;SDS011;16861;52.294;7.760;2023-05-16T01:31:12;4.65;;;1.83;;
30020;SDS011;16861;52.294;7.760;2023-05-16T01:33:39;4.35;;;1.83;;
30020;SDS011;16861;52.294;7.760;2023-05-16T01:38:38;8.60;;;1.80;;
30020;SDS011;16861;52.294;7.760;2023-05-16T01:43:43;8.60;;;2.17;;
30020;SDS011;16861;52.294;7.760;2023-05-16T01:46:13;8.40;;;2.60;;
30020;SDS011;16861;52.294;7.760;2023-05-16T01:51:28;12.23;;;1.98;;
30020;SDS011;16861;52.294;7.760;2023-05-16T01:53:58;6.18;;;1.90;;
30020;SDS011;16861;52.294;7.760;2023-05-16T01:56:30;7.03;;;2.25;;
30020;SDS011;16861;52.294;7.760;2023-05-16T01:58:58;11.27;;;2.05;;
30020;SDS011;16861;52.294;7.760;2023-05-16T02:01:28;8.10;;;2.28;;
30020;SDS011;16861;52.294;7.760;2023-05-16T02:03:56;11.52;;;2.42;;
30020;SDS011;16861;52.294;7.760;2023-05-16T02:06:23;10.02;;;2.25;;
30020;SDS011;16861;52.294;7.760;2023-05-16T02:08:51;7.72;;;2.22;;
30020;SDS011;16861;52.294;7.760;2023-05-16T02:11:17;7.88;;;2.40;;
30020;SDS011;16861;52.294;7.760;2023-05-16T02:13:44;9.60;;;2.00;;
30020;SDS011;16861;52.294;7.760;2023-05-16T02:16:10;8.70;;;2.22;;
30020;SDS011;16861;52.294;7.760;2023-05-16T02:18:37;9.93;;;2.28;;
30020;SDS011;16861;52.294;7.760;2023-05-16T02:21:04;11.82;;;2.33;;
30020;SDS011;16861;52.294;7.760;2023-05-16T02:23:31;7.95;;;2.50;;
30020;SDS011;16861;52.294;7.760;2023-05-16T02:25:58;10.63;;;2.63;;
30020;SDS011;16861;52.294;7.760;2023-05-16T02:28:24;13.88;;;2.72;;
30020;SDS011;16861;52.294;7.760;2023-05-16T02:30:57;10.82;;;2.42;;
30020;SDS011;16861;52.294;7.760;2023-05-16T02:33:25;9.25;;;2.38;;
30020;SDS011;16861;52.294;7.760;2023-05-16T02:35:53;9.82;;;1.95;;
30020;SDS011;16861;52.294;7.760;2023-05-16T02:38:20;9.50;;;2.30;;
30020;SDS011;16861;52.294;7.760;2023-05-16T02:40:47;8.90;;;1.90;;
30020;SDS011;16861;52.294;7.760;2023-05-16T02:43:14;12.50;;;2.25;;
30020;SDS011;16861;52.294;7.760;2023-05-16T02:45:40;19.77;;;2.45;;
30020;SDS011;16861;52.294;7.760;2023-05-16T02:48:07;13.23;;;2.53;;
30020;SDS011;16861;52.294;7.760;2023-05-16T02:50:34;12.00;;;2.13;;
30020;SDS011;16861;52.294;7.760;2023-05-16T02:53:01;16.70;;;2.60;;
30020;SDS011;16861;52.294;7.760;2023-05-16T02:55:28;13.93;;;2.80;;
30020;SDS011;16861;52.294;7.760;2023-05-16T02:57:54;9.77;;;2.17;;
30020;SDS011;16861;52.294;7.760;2023-05-16T03:00:21;19.00;;;2.60;;
30020;SDS011;16861;52.294;7.760;2023-05-16T03:02:48;13.55;;;3.10;;
30020;SDS011;16861;52.294;7.760;2023-05-16T03:05:14;10.48;;;2.70;;
30020;SDS011;16861;52.294;7.760;2023-05-16T03:07:42;9.10;;;1.95;;
30020;SDS011;16861;52.294;7.760;2023-05-16T03:10:08;13.55;;;2.35;;
30020;SDS011;16861;52.294;7.760;2023-05-16T03:12:35;11.57;;;2.00;;
30020;SDS011;16861;52.294;7.760;2023-05-16T03:15:02;15.40;;;2.40;;
30020;SDS011;16861;52.294;7.760;2023-05-16T03:17:29;10.13;;;2.20;;
30020;SDS011;16861;52.294;7.760;2023-05-16T03:19:55;13.30;;;2.15;;
30020;SDS011;16861;52.294;7.760;2023-05-16T03:22:22;12.23;;;2.22;;
30020;SDS011;16861;52.294;7.760;2023-05-16T03:24:49;17.13;;;2.25;;
30020;SDS011;16861;52.294;7.760;2023-05-16T03:27:15;9.55;;;2.03;;
30020;SDS011;16861;52.294;7.760;2023-05-16T03:29:42;11.20;;;2.28;;
30020;SDS011;16861;52.294;7.760;2023-05-16T03:32:09;13.00;;;2.40;;
30020;SDS011;16861;52.294;7.760;2023-05-16T03:34:36;13.57;;;2.53;;
30020;SDS011;16861;52.294;7.760;2023-05-16T03:37:03;17.75;;;2.75;;
30020;SDS011;16861;52.294;7.760;2023-05-16T03:39:30;15.38;;;2.42;;
30020;SDS011;16861;52.294;7.760;2023-05-16T03:41:56;13.73;;;2.42;;
30020;SDS011;16861;52.294;7.760;2023-05-16T03:44:23;10.88;;;2.50;;
30020;SDS011;16861;52.294;7.760;2023-05-16T03:46:49;11.30;;;3.00;;
30020;SDS011;16861;52.294;7.760;2023-05-16T03:49:16;11.65;;;2.70;;
30020;SDS011;16861;52.294;7.760;2023-05-16T03:51:45;10.25;;;2.70;;
30020;SDS011;16861;52.294;7.760;2023-05-16T03:54:13;16.17;;;2.92;;
30020;SDS011;16861;52.294;7.760;2023-05-16T03:56:40;11.98;;;3.20;;
30020;SDS011;16861;52.294;7.760;2023-05-16T03:59:06;9.55;;;2.58;;
30020;SDS011;16861;52.294;7.760;2023-05-16T04:01:33;9.65;;;2.50;;
30020;SDS011;16861;52.294;7.760;2023-05-16T04:04:00;13.00;;;2.85;;
30020;SDS011;16861;52.294;7.760;2023-05-16T04:06:26;13.50;;;3.28;;
30020;SDS011;16861;52.294;7.760;2023-05-16T04:08:53;14.43;;;2.75;;
30020;SDS011;16861;52.294;7.760;2023-05-16T04:11:19;16.95;;;3.28;;
30020;SDS011;16861;52.294;7.760;2023-05-16T04:13:47;12.82;;;2.72;;
30020;SDS011;16861;52.294;7.760;2023-05-16T04:16:13;10.98;;;2.63;;
30020;SDS011;16861;52.294;7.760;2023-05-16T04:18:40;15.13;;;2.50;;
30020;SDS011;16861;52.294;7.760;2023-05-16T04:21:07;11.20;;;2.40;;
30020;SDS011;16861;52.294;7.760;2023-05-16T04:23:35;7.90;;;1.88;;
30020;SDS011;16861;52.294;7.760;2023-05-16T04:26:02;13.20;;;2.67;;
30020;SDS011;16861;52.294;7.760;2023-05-16T04:28:29;8.20;;;1.92;;
30020;SDS011;16861;52.294;7.760;2023-05-16T04:30:56;13.80;;;2.72;;
30020;SDS011;16861;52.294;7.760;2023-05-16T04:33:23;10.95;;;2.25;;
30020;SDS011;16861;52.294;7.760;2023-05-16T04:35:49;13.85;;;2.22;;
30020;SDS011;16861;52.294;7.760;2023-05-16T04:38:18;8.63;;;2.10;;
30020;SDS011;16861;52.294;7.760;2023-05-16T04:40:44;14.20;;;2.20;;
30020;SDS011;16861;52.294;7.760;2023-05-16T04:43:11;11.55;;;2.20;;
30020;SDS011;16861;52.294;7.760;2023-05-16T04:45:38;11.13;;;2.00;;
30020;SDS011;16861;52.294;7.760;2023-05-16T04:48:04;9.30;;;1.65;;
30020;SDS011;16861;52.294;7.760;2023-05-16T04:50:31;12.90;;;2.50;;
30020;SDS011;16861;52.294;7.760;2023-05-16T04:52:58;10.60;;;2.10;;
30020;SDS011;16861;52.294;7.760;2023-05-16T04:55:24;13.15;;;2.10;;
30020;SDS011;16861;52.294;7.760;2023-05-16T04:57:52;11.98;;;2.40;;
30020;SDS011;16861;52.294;7.760;2023-05-16T05:00:18;16.15;;;1.85;;
30020;SDS011;16861;52.294;7.760;2023-05-16T05:02:45;9.73;;;2.00;;
30020;SDS011;16861;52.294;7.760;2023-05-16T05:05:12;10.10;;;1.50;;
30020;SDS011;16861;52.294;7.760;2023-05-16T05:07:39;19.17;;;2.55;;
30020;SDS011;16861;52.294;7.760;2023-05-16T05:10:06;12.43;;;2.40;;
30020;SDS011;16861;52.294;7.760;2023-05-16T05:12:34;10.85;;;2.00;;
30020;SDS011;16861;52.294;7.760;2023-05-16T05:15:01;10.20;;;2.03;;
30020;SDS011;16861;52.294;7.760;2023-05-16T05:17:27;11.02;;;1.98;;
30020;SDS011;16861;52.294;7.760;2023-05-16T05:19:55;14.10;;;2.17;;
30020;SDS011;16861;52.294;7.760;2023-05-16T05:22:21;9.27;;;1.85;;
30020;SDS011;16861;52.294;7.760;2023-05-16T05:24:48;11.15;;;1.95;;
30020;SDS011;16861;52.294;7.760;2023-05-16T05:27:14;9.45;;;1.90;;
30020;SDS011;16861;52.294;7.760;2023-05-16T05:29:41;14.15;;;2.00;;
30020;SDS011;16861;52.294;7.760;2023-05-16T05:32:07;10.55;;;1.75;;
30020;SDS011;16861;52.294;7.760;2023-05-16T05:34:34;10.73;;;2.20;;
30020;SDS011;16861;52.294;7.760;2023-05-16T05:37:01;11.98;;;2.00;;
30020;SDS011;16861;52.294;7.760;2023-05-16T05:39:27;11.82;;;2.65;;
30020;SDS011;16861;52.294;7.760;2023-05-16T05:41:54;14.50;;;2.15;;
30020;SDS011;16861;52.294;7.760;2023-05-16T05:44:20;7.55;;;1.48;;
30020;SDS011;16861;52.294;7.760;2023-05-16T05:46:47;12.75;;;1.90;;
30020;SDS011;16861;52.294;7.760;2023-05-16T05:49:14;12.18;;;2.15;;
30020;SDS011;16861;52.294;7.760;2023-05-16T05:51:41;7.90;;;2.72;;
30020;SDS011;16861;52.294;7.760;2023-05-16T05:54:08;10.43;;;2.13;;
30020;SDS011;16861;52.294;7.760;2023-05-16T05:56:35;8.10;;;1.95;;
30020;SDS011;16861;52.294;7.760;2023-05-16T05:59:02;12.43;;;1.92;;
30020;SDS011;16861;52.294;7.760;2023-05-16T06:01:28;11.48;;;2.05;;
30020;SDS011;16861;52.294;7.760;2023-05-16T06:03:55;14.27;;;2.22;;
30020;SDS011;16861;52.294;7.760;2023-05-16T06:06:23;10.80;;;2.10;;
30020;SDS011;16861;52.294;7.760;2023-05-16T06:08:50;9.57;;;1.92;;
30020;SDS011;16861;52.294;7.760;2023-05-16T06:11:17;9.35;;;1.70;;
30020;SDS011;16861;52.294;7.760;2023-05-16T06:13:43;11.18;;;2.20;;
30020;SDS011;16861;52.294;7.760;2023-05-16T06:16:10;12.80;;;2.13;;
30020;SDS011;16861;52.294;7.760;2023-05-16T06:18:37;11.38;;;2.00;;
30020;SDS011;16861;52.294;7.760;2023-05-16T06:21:03;13.18;;;2.10;;
30020;SDS011;16861;52.294;7.760;2023-05-16T06:23:31;14.98;;;1.95;;
30020;SDS011;16861;52.294;7.760;2023-05-16T06:25:58;19.33;;;2.65;;
30020;SDS011;16861;52.294;7.760;2023-05-16T06:28:25;11.38;;;2.13;;
30020;SDS011;16861;52.294;7.760;2023-05-16T06:30:51;12.38;;;2.22;;
30020;SDS011;16861;52.294;7.760;2023-05-16T06:33:18;7.75;;;1.80;;
30020;SDS011;16861;52.294;7.760;2023-05-16T06:35:45;11.15;;;2.00;;
30020;SDS011;16861;52.294;7.760;2023-05-16T06:38:13;12.02;;;2.13;;
30020;SDS011;16861;52.294;7.760;2023-05-16T06:40:40;10.77;;;1.90;;
30020;SDS011;16861;52.294;7.760;2023-05-16T06:43:07;7.65;;;1.83;;
30020;SDS011;16861;52.294;7.760;2023-05-16T06:45:33;10.82;;;2.17;;
30020;SDS011;16861;52.294;7.760;2023-05-16T06:48:00;10.70;;;2.05;;
30020;SDS011;16861;52.294;7.760;2023-05-16T06:50:27;10.38;;;2.08;;
30020;SDS011;16861;52.294;7.760;2023-05-16T06:52:54;8.50;;;2.38;;
30020;SDS011;16861;52.294;7.760;2023-05-16T06:55:20;10.05;;;1.77;;
30020;SDS011;16861;52.294;7.760;2023-05-16T06:57:47;13.52;;;1.85;;
30020;SDS011;16861;52.294;7.760;2023-05-16T07:00:14;9.63;;;2.28;;
30020;SDS011;16861;52.294;7.760;2023-05-16T07:02:41;12.65;;;2.47;;
30020;SDS011;16861;52.294;7.760;2023-05-16T07:05:10;13.05;;;1.80;;
30020;SDS011;16861;52.294;7.760;2023-05-16T07:07:36;10.85;;;2.42;;
30020;SDS011;16861;52.294;7.760;2023-05-16T07:10:03;9.30;;;2.20;;
30020;SDS011;16861;52.294;7.760;2023-05-16T07:12:30;8.15;;;1.92;;
30020;SDS011;16861;52.294;7.760;2023-05-16T07:14:56;12.68;;;2.72;;
30020;SDS011;16861;52.294;7.760;2023-05-16T07:17:23;12.13;;;2.33;;
30020;SDS011;16861;52.294;7.760;2023-05-16T07:19:50;8.90;;;1.73;;
30020;SDS011;16861;52.294;7.760;2023-05-16T07:22:16;6.75;;;1.65;;
30020;SDS011;16861;52.294;7.760;2023-05-16T07:24:43;7.80;;;1.65;;
30020;SDS011;16861;52.294;7.760;2023-05-16T07:27:09;11.85;;;1.92;;
30020;SDS011;16861;52.294;7.760;2023-05-16T07:29:36;9.73;;;1.95;;
30020;SDS011;16861;52.294;7.760;2023-05-16T07:32:03;7.93;;;1.50;;
30020;SDS011;16861;52.294;7.760;2023-05-16T07:34:30;7.05;;;1.40;;
30020;SDS011;16861;52.294;7.760;2023-05-16T07:36:57;9.30;;;1.70;;
30020;SDS011;16861;52.294;7.760;2023-05-16T07:39:25;11.70;;;1.73;;
30020;SDS011;16861;52.294;7.760;2023-05-16T07:41:52;15.10;;;2.20;;
30020;SDS011;16861;52.294;7.760;2023-05-16T07:44:19;6.70;;;1.40;;
30020;SDS011;16861;52.294;7.760;2023-05-16T07:46:46;12.55;;;1.48;;
30020;SDS011;16861;52.294;7.760;2023-05-16T07:49:12;9.57;;;2.15;;
30020;SDS011;16861;52.294;7.760;2023-05-16T07:51:39;6.90;;;1.50;;
30020;SDS011;16861;52.294;7.760;2023-05-16T07:54:06;10.52;;;1.70;;
30020;SDS011;16861;52.294;7.760;2023-05-16T07:56:32;10.88;;;2.03;;
30020;SDS011;16861;52.294;7.760;2023-05-16T07:58:59;10.45;;;1.80;;
30020;SDS011;16861;52.294;7.760;2023-05-16T08:01:26;7.72;;;1.50;;
30020;SDS011;16861;52.294;7.760;2023-05-16T08:03:53;4.97;;;1.42;;
30020;SDS011;16861;52.294;7.760;2023-05-16T08:06:20;12.15;;;2.13;;
30020;SDS011;16861;52.294;7.760;2023-05-16T08:08:46;7.25;;;1.75;;
30020;SDS011;16861;52.294;7.760;2023-05-16T08:11:13;8.27;;;1.52;;
30020;SDS011;16861;52.294;7.760;2023-05-16T08:13:40;6.80;;;2.03;;
30020;SDS011;16861;52.294;7.760;2023-05-16T08:16:07;8.15;;;2.00;;
30020;SDS011;16861;52.294;7.760;2023-05-16T08:18:33;8.45;;;1.48;;
30020;SDS011;16861;52.294;7.760;2023-05-16T08:21:00;6.72;;;1.65;;
30020;SDS011;16861;52.294;7.760;2023-05-16T08:23:27;8.00;;;1.42;;
30020;SDS011;16861;52.294;7.760;2023-05-16T08:25:54;8.98;;;1.65;;
30020;SDS011;16861;52.294;7.760;2023-05-16T08:28:20;5.43;;;1.45;;
30020;SDS011;16861;52.294;7.760;2023-05-16T08:30:47;6.15;;;1.65;;
30020;SDS011;16861;52.294;7.760;2023-05-16T08:33:13;8.73;;;1.58;;
30020;SDS011;16861;52.294;7.760;2023-05-16T08:35:42;7.72;;;1.58;;
30020;SDS011;16861;52.294;7.760;2023-05-16T08:38:09;7.35;;;1.30;;
30020;SDS011;16861;52.294;7.760;2023-05-16T08:40:36;6.03;;;1.50;;
30020;SDS011;16861;52.294;7.760;2023-05-16T08:43:03;6.13;;;1.20;;
30020;SDS011;16861;52.294;7.760;2023-05-16T08:45:30;7.45;;;1.85;;
30020;SDS011;16861;52.294;7.760;2023-05-16T08:47:57;6.55;;;1.55;;
30020;SDS011;16861;52.294;7.760;2023-05-16T08:50:32;7.63;;;1.50;;
30020;SDS011;16861;52.294;7.760;2023-05-16T08:53:03;7.93;;;1.33;;
30020;SDS011;16861;52.294;7.760;2023-05-16T08:55:32;8.73;;;1.58;;
30020;SDS011;16861;52.294;7.760;2023-05-16T08:58:01;7.88;;;1.50;;
30020;SDS011;16861;52.294;7.760;2023-05-16T09:00:28;4.70;;;1.45;;
30020;SDS011;16861;52.294;7.760;2023-05-16T09:02:57;3.10;;;1.20;;
30020;SDS011;16861;52.294;7.760;2023-05-16T09:05:24;6.85;;;1.30;;
30020;SDS011;16861;52.294;7.760;2023-05-16T09:07:51;6.80;;;1.38;;
30020;SDS011;16861;52.294;7.760;2023-05-16T09:10:18;5.38;;;1.70;;
30020;SDS011;16861;52.294;7.760;2023-05-16T09:12:45;3.38;;;1.20;;
30020;SDS011;16861;52.294;7.760;2023-05-16T09:15:11;6.55;;;1.42;;
30020;SDS011;16861;52.294;7.760;2023-05-16T09:17:39;6.00;;;0.98;;
30020;SDS011;16861;52.294;7.760;2023-05-16T09:22:36;6.63;;;1.55;;
30020;SDS011;16861;52.294;7.760;2023-05-16T09:25:03;5.90;;;1.40;;
30020;SDS011;16861;52.294;7.760;2023-05-16T09:27:33;3.88;;;1.20;;
30020;SDS011;16861;52.294;7.760;2023-05-16T09:30:00;8.45;;;1.13;;
30020;SDS011;16861;52.294;7.760;2023-05-16T09:32:27;5.22;;;1.23;;
30020;SDS011;16861;52.294;7.760;2023-05-16T09:34:54;5.18;;;1.13;;
30020;SDS011;16861;52.294;7.760;2023-05-16T09:37:23;6.35;;;1.27;;
30020;SDS011;16861;52.294;7.760;2023-05-16T09:39:51;7.45;;;1.63;;
30020;SDS011;16861;52.294;7.760;2023-05-16T09:42:22;7.15;;;1.40;;
30020;SDS011;16861;52.294;7.760;2023-05-16T09:44:51;6.13;;;1.05;;
30020;SDS011;16861;52.294;7.760;2023-05-16T09:47:20;5.53;;;1.40;;
30020;SDS011;16861;52.294;7.760;2023-05-16T09:49:51;7.38;;;1.15;;
30020;SDS011;16861;52.294;7.760;2023-05-16T09:52:18;2.67;;;0.95;;
30020;SDS011;16861;52.294;7.760;2023-05-16T09:54:45;6.38;;;1.27;;
30020;SDS011;16861;52.294;7.760;2023-05-16T09:57:21;3.75;;;1.05;;
30020;SDS011;16861;52.294;7.760;2023-05-16T09:59:48;5.10;;;1.55;;
30020;SDS011;16861;52.294;7.760;2023-05-16T10:02:15;4.53;;;1.13;;
30020;SDS011;16861;52.294;7.760;2023-05-16T10:04:42;5.10;;;1.45;;
30020;SDS011;16861;52.294;7.760;2023-05-16T10:07:09;4.57;;;1.27;;
30020;SDS011;16861;52.294;7.760;2023-05-16T10:09:36;5.95;;;1.35;;
30020;SDS011;16861;52.294;7.760;2023-05-16T10:12:06;4.72;;;1.30;;
30020;SDS011;16861;52.294;7.760;2023-05-16T10:14:35;4.50;;;1.20;;
30020;SDS011;16861;52.294;7.760;2023-05-16T10:17:03;5.90;;;1.55;;
30020;SDS011;16861;52.294;7.760;2023-05-16T10:19:37;3.78;;;1.08;;
30020;SDS011;16861;52.294;7.760;2023-05-16T10:22:05;2.72;;;0.90;;
30020;SDS011;16861;52.294;7.760;2023-05-16T10:24:42;6.07;;;1.20;;
30020;SDS011;16861;52.294;7.760;2023-05-16T10:27:14;4.38;;;1.27;;
30020;SDS011;16861;52.294;7.760;2023-05-16T10:29:44;3.90;;;1.10;;
30020;SDS011;16861;52.294;7.760;2023-05-16T10:32:20;5.82;;;1.60;;
30020;SDS011;16861;52.294;7.760;2023-05-16T10:34:50;5.07;;;1.00;;
30020;SDS011;16861;52.294;7.760;2023-05-16T10:37:17;4.57;;;1.48;;
30020;SDS011;16861;52.294;7.760;2023-05-16T10:39:44;8.27;;;1.23;;
30020;SDS011;16861;52.294;7.760;2023-05-16T10:42:11;4.97;;;1.20;;
30020;SDS011;16861;52.294;7.760;2023-05-16T10:44:43;4.63;;;1.15;;
30020;SDS011;16861;52.294;7.760;2023-05-16T10:47:23;6.60;;;1.23;;
30020;SDS011;16861;52.294;7.760;2023-05-16T10:49:50;6.47;;;1.33;;
30020;SDS011;16861;52.294;7.760;2023-05-16T10:52:16;2.88;;;0.90;;
30020;SDS011;16861;52.294;7.760;2023-05-16T10:54:45;2.38;;;1.05;;
30020;SDS011;16861;52.294;7.760;2023-05-16T10:57:19;2.53;;;0.98;;
30020;SDS011;16861;52.294;7.760;2023-05-16T10:59:50;1.75;;;0.90;;
30020;SDS011;16861;52.294;7.760;2023-05-16T11:02:21;3.55;;;1.10;;
30020;SDS011;16861;52.294;7.760;2023-05-16T11:04:57;2.70;;;1.27;;
30020;SDS011;16861;52.294;7.760;2023-05-16T11:07:25;2.10;;;1.08;;
30020;SDS011;16861;52.294;7.760;2023-05-16T11:12:37;2.53;;;0.80;;
30020;SDS011;16861;52.294;7.760;2023-05-16T11:15:22;6.70;;;1.10;;
30020;SDS011;16861;52.294;7.760;2023-05-16T11:17:48;3.75;;;1.00;;
30020;SDS011;16861;52.294;7.760;2023-05-16T11:20:25;4.57;;;1.35;;
30020;SDS011;16861;52.294;7.760;2023-05-16T11:23:16;3.13;;;1.20;;
30020;SDS011;16861;52.294;7.760;2023-05-16T11:25:43;2.63;;;1.10;;
30020;SDS011;16861;52.294;7.760;2023-05-16T11:28:11;8.18;;;1.40;;
30020;SDS011;16861;52.294;7.760;2023-05-16T11:30:42;6.03;;;1.65;;
30020;SDS011;16861;52.294;7.760;2023-05-16T11:33:11;1.83;;;1.00;;
30020;SDS011;16861;52.294;7.760;2023-05-16T11:35:38;5.05;;;1.10;;
30020;SDS011;16861;52.294;7.760;2023-05-16T11:38:05;6.25;;;1.42;;
30020;SDS011;16861;52.294;7.760;2023-05-16T11:40:31;5.18;;;1.10;;
30020;SDS011;16861;52.294;7.760;2023-05-16T11:42:59;3.33;;;1.17;;
30020;SDS011;16861;52.294;7.760;2023-05-16T11:45:32;3.80;;;1.40;;
30020;SDS011;16861;52.294;7.760;2023-05-16T11:48:02;4.68;;;1.10;;
30020;SDS011;16861;52.294;7.760;2023-05-16T11:50:29;3.50;;;1.13;;
30020;SDS011;16861;52.294;7.760;2023-05-16T11:52:56;5.25;;;1.20;;
30020;SDS011;16861;52.294;7.760;2023-05-16T11:55:24;4.30;;;1.08;;
30020;SDS011;16861;52.294;7.760;2023-05-16T11:58:07;5.30;;;1.38;;
30020;SDS011;16861;52.294;7.760;2023-05-16T12:00:34;3.83;;;1.20;;
30020;SDS011;16861;52.294;7.760;2023-05-16T12:03:02;5.13;;;1.50;;
30020;SDS011;16861;52.294;7.760;2023-05-16T12:05:30;2.60;;;1.10;;
30020;SDS011;16861;52.294;7.760;2023-05-16T12:08:00;3.60;;;1.35;;
30020;SDS011;16861;52.294;7.760;2023-05-16T12:10:29;3.92;;;1.42;;
30020;SDS011;16861;52.294;7.760;2023-05-16T12:12:59;3.53;;;1.23;;
30020;SDS011;16861;52.294;7.760;2023-05-16T12:15:26;3.20;;;0.93;;
30020;SDS011;16861;52.294;7.760;2023-05-16T12:17:53;3.45;;;1.10;;
30020;SDS011;16861;52.294;7.760;2023-05-16T12:20:21;7.13;;;1.30;;
30020;SDS011;16861;52.294;7.760;2023-05-16T12:22:47;6.13;;;1.20;;
30020;SDS011;16861;52.294;7.760;2023-05-16T12:25:20;1.95;;;0.85;;
30020;SDS011;16861;52.294;7.760;2023-05-16T12:27:48;2.53;;;0.90;;
30020;SDS011;16861;52.294;7.760;2023-05-16T12:30:16;4.80;;;1.40;;
30020;SDS011;16861;52.294;7.760;2023-05-16T12:32:43;5.10;;;1.23;;
30020;SDS011;16861;52.294;7.760;2023-05-16T12:35:10;4.93;;;1.05;;
30020;SDS011;16861;52.294;7.760;2023-05-16T12:37:38;5.55;;;1.45;;
30020;SDS011;16861;52.294;7.760;2023-05-16T12:40:05;3.58;;;0.90;;
30020;SDS011;16861;52.294;7.760;2023-05-16T12:45:14;6.10;;;1.27;;
30020;SDS011;16861;52.294;7.760;2023-05-16T12:47:45;5.38;;;1.40;;
30020;SDS011;16861;52.294;7.760;2023-05-16T12:50:12;3.25;;;1.40;;
30020;SDS011;16861;52.294;7.760;2023-05-16T12:52:51;4.38;;;1.38;;
30020;SDS011;16861;52.294;7.760;2023-05-16T12:55:19;4.32;;;1.27;;
30020;SDS011;16861;52.294;7.760;2023-05-16T12:57:47;4.72;;;1.15;;
30020;SDS011;16861;52.294;7.760;2023-05-16T13:00:16;3.80;;;1.30;;
30020;SDS011;16861;52.294;7.760;2023-05-16T13:02:44;4.03;;;1.73;;
30020;SDS011;16861;52.294;7.760;2023-05-16T13:05:12;9.27;;;1.40;;
30020;SDS011;16861;52.294;7.760;2023-05-16T13:07:39;5.18;;;1.40;;
30020;SDS011;16861;52.294;7.760;2023-05-16T13:10:06;5.40;;;1.35;;
30020;SDS011;16861;52.294;7.760;2023-05-16T13:12:38;6.03;;;1.55;;
30020;SDS011;16861;52.294;7.760;2023-05-16T13:15:05;7.60;;;1.75;;
30020;SDS011;16861;52.294;7.760;2023-05-16T13:17:33;4.68;;;1.33;;
30020;SDS011;16861;52.294;7.760;2023-05-16T13:20:00;7.53;;;1.45;;
30020;SDS011;16861;52.294;7.760;2023-05-16T13:22:30;4.70;;;1.40;;
30020;SDS011;16861;52.294;7.760;2023-05-16T13:24:56;2.88;;;1.00;;
30020;SDS011;16861;52.294;7.760;2023-05-16T13:27:23;4.07;;;1.10;;
30020;SDS011;16861;52.294;7.760;2023-05-16T13:29:49;6.55;;;1.50;;
30020;SDS011;16861;52.294;7.760;2023-05-16T13:32:16;6.68;;;1.40;;
30020;SDS011;16861;52.294;7.760;2023-05-16T13:34:44;8.00;;;1.60;;
30020;SDS011;16861;52.294;7.760;2023-05-16T13:37:10;5.22;;;1.63;;
30020;SDS011;16861;52.294;7.760;2023-05-16T13:39:37;4.00;;;0.90;;
30020;SDS011;16861;52.294;7.760;2023-05-16T13:42:03;7.07;;;1.40;;
30020;SDS011;16861;52.294;7.760;2023-05-16T13:44:30;9.65;;;1.52;;
30020;SDS011;16861;52.294;7.760;2023-05-16T13:46:57;5.70;;;1.10;;
30020;SDS011;16861;52.294;7.760;2023-05-16T13:49:24;3.75;;;1.48;;
30020;SDS011;16861;52.294;7.760;2023-05-16T13:51:50;6.00;;;1.27;;
30020;SDS011;16861;52.294;7.760;2023-05-16T13:54:18;2.88;;;1.08;;
30020;SDS011;16861;52.294;7.760;2023-05-16T13:56:45;5.97;;;1.40;;
30020;SDS011;16861;52.294;7.760;2023-05-16T13:59:11;5.95;;;1.02;;
30020;SDS011;16861;52.294;7.760;2023-05-16T14:01:49;5.40;;;1.08;;
30020;SDS011;16861;52.294;7.760;2023-05-16T14:04:16;6.50;;;1.73;;
30020;SDS011;16861;52.294;7.760;2023-05-16T14:06:42;6.72;;;1.85;;
30020;SDS011;16861;52.294;7.760;2023-05-16T14:09:09;3.72;;;1.40;;
30020;SDS011;16861;52.294;7.760;2023-05-16T14:11:36;3.17;;;1.38;;
30020;SDS011;16861;52.294;7.760;2023-05-16T14:14:02;5.82;;;1.52;;
30020;SDS011;16861;52.294;7.760;2023-05-16T14:16:29;5.32;;;1.55;;
30020;SDS011;16861;52.294;7.760;2023-05-16T14:18:56;7.57;;;1.55;;
30020;SDS011;16861;52.294;7.760;2023-05-16T14:21:23;4.32;;;1.67;;
30020;SDS011;16861;52.294;7.760;2023-05-16T14:23:49;3.15;;;1.50;;
30020;SDS011;16861;52.294;7.760;2023-05-16T14:26:16;4.75;;;1.58;;
30020;SDS011;16861;52.294;7.760;2023-05-16T14:28:47;3.55;;;1.50;;
30020;SDS011;16861;52.294;7.760;2023-05-16T14:31:14;5.70;;;1.75;;
30020;SDS011;16861;52.294;7.760;2023-05-16T14:33:40;5.68;;;1.83;;
30020;SDS011;16861;52.294;7.760;2023-05-16T14:36:08;3.78;;;1.50;;
30020;SDS011;16861;52.294;7.760;2023-05-16T14:38:35;6.78;;;1.80;;
30020;SDS011;16861;52.294;7.760;2023-05-16T14:41:01;6.32;;;1.85;;
30020;SDS011;16861;52.294;7.760;2023-05-16T14:43:28;5.55;;;1.85;;
30020;SDS011;16861;52.294;7.760;2023-05-16T14:45:55;5.60;;;1.83;;
30020;SDS011;16861;52.294;7.760;2023-05-16T14:48:22;6.43;;;1.50;;
30020;SDS011;16861;52.294;7.760;2023-05-16T14:50:48;5.75;;;1.60;;
30020;SDS011;16861;52.294;7.760;2023-05-16T14:53:15;4.07;;;1.83;;
30020;SDS011;16861;52.294;7.760;2023-05-16T14:55:41;2.63;;;1.25;;
30020;SDS011;16861;52.294;7.760;2023-05-16T14:58:09;4.47;;;1.77;;
30020;SDS011;16861;52.294;7.760;2023-05-16T15:00:37;5.15;;;2.00;;
30020;SDS011;16861;52.294;7.760;2023-05-16T15:03:03;5.18;;;2.13;;
30020;SDS011;16861;52.294;7.760;2023-05-16T15:05:30;4.93;;;1.73;;
30020;SDS011;16861;52.294;7.760;2023-05-16T15:07:57;4.97;;;1.35;;
30020;SDS011;16861;52.294;7.760;2023-05-16T15:10:23;6.38;;;1.92;;